UAL456 MTPP-KMIA
Flight info
| Callsign | UAL456 |
|---|---|
| Flight time | 1h 39m |
| Altitude | 38000 |
| Route | SAVAR1G SAVAR UA315 JOSES Y586 MADIZ VIICE2 |
| Aircraft | B772/H-SDE2E3FGHIJ5LORVWXY/LB1D1 |
Departure
| Time | 2026-04-18 03:42 |
|---|---|
| Airport | Toussaint Louverture International Airport (MTPP) |
Arrival
| Time | 2026-04-18 05:21 |
|---|---|
| Airport | Miami International Airport (KMIA) |
| Time | Latitude | Longitude | Altitude | Speed | Heading |
|---|---|---|---|---|---|
| 2026-04-18 03:39 | 18.57974 | -72.29806 | 161 ft | 19 kts | 269° |
| 2026-04-18 03:39 | 18.57968 | -72.29955 | 161 ft | 21 kts | 266° |
| 2026-04-18 03:39 | 18.57960 | -72.30115 | 160 ft | 22 kts | 268° |
| 2026-04-18 03:40 | 18.57953 | -72.30287 | 159 ft | 24 kts | 267° |
| 2026-04-18 03:40 | 18.57944 | -72.30470 | 158 ft | 26 kts | 267° |
| 2026-04-18 03:40 | 18.57920 | -72.30618 | 156 ft | 14 kts | 239° |
| 2026-04-18 03:40 | 18.57928 | -72.30661 | 156 ft | 7 kts | 52° |
| 2026-04-18 03:41 | 18.57935 | -72.30638 | 156 ft | 0 kts | 87° |
| 2026-04-18 03:41 | 18.57936 | -72.30611 | 156 ft | 23 kts | 87° |
| 2026-04-18 03:41 | 18.57959 | -72.30073 | 160 ft | 120 kts | 87° |
| 2026-04-18 03:41 | 18.58026 | -72.28879 | 176 ft | 197 kts | 87° |
| 2026-04-18 03:42 | 18.58103 | -72.27322 | 708 ft | 224 kts | 88° |
| 2026-04-18 03:42 | 18.58156 | -72.25732 | 1700 ft | 209 kts | 87° |
| 2026-04-18 03:42 | 18.58245 | -72.24257 | 2557 ft | 201 kts | 86° |
| 2026-04-18 03:42 | 18.58560 | -72.22810 | 3403 ft | 218 kts | 65° |
| 2026-04-18 03:43 | 18.59503 | -72.21515 | 4396 ft | 238 kts | 42° |
| 2026-04-18 03:43 | 18.61040 | -72.20640 | 5319 ft | 268 kts | 16° |
| 2026-04-18 03:43 | 18.62932 | -72.20614 | 6341 ft | 292 kts | 347° |
| 2026-04-18 03:43 | 18.64737 | -72.21693 | 7507 ft | 310 kts | 315° |
| 2026-04-18 03:44 | 18.65817 | -72.23627 | 8733 ft | 321 kts | 285° |
| 2026-04-18 03:44 | 18.66113 | -72.25958 | 10027 ft | 328 kts | 273° |
| 2026-04-18 03:44 | 18.66214 | -72.28355 | 11337 ft | 333 kts | 272° |
| 2026-04-18 03:44 | 18.66295 | -72.30755 | 12607 ft | 338 kts | 272° |
| 2026-04-18 03:45 | 18.66375 | -72.33228 | 13861 ft | 343 kts | 273° |
| 2026-04-18 03:45 | 18.66458 | -72.35780 | 14798 ft | 358 kts | 274° |
| 2026-04-18 03:45 | 18.66804 | -72.38391 | 15675 ft | 370 kts | 290° |
| 2026-04-18 03:45 | 18.67942 | -72.40829 | 16549 ft | 378 kts | 309° |
| 2026-04-18 03:46 | 18.69790 | -72.42750 | 17400 ft | 377 kts | 329° |
| 2026-04-18 03:46 | 18.72098 | -72.44021 | 18265 ft | 378 kts | 339° |
| 2026-04-18 03:46 | 18.74548 | -72.45104 | 19141 ft | 380 kts | 340° |
| 2026-04-18 03:46 | 18.76981 | -72.46165 | 20005 ft | 388 kts | 340° |
| 2026-04-18 03:47 | 18.79527 | -72.47276 | 20897 ft | 398 kts | 340° |
| 2026-04-18 03:47 | 18.82094 | -72.48395 | 21774 ft | 404 kts | 340° |
| 2026-04-18 03:47 | 18.84716 | -72.49541 | 22654 ft | 408 kts | 340° |
| 2026-04-18 03:47 | 18.87341 | -72.50687 | 23543 ft | 413 kts | 340° |
| 2026-04-18 03:48 | 18.89980 | -72.51841 | 24437 ft | 417 kts | 340° |
| 2026-04-18 03:48 | 18.92695 | -72.53029 | 25355 ft | 420 kts | 340° |
| 2026-04-18 03:48 | 18.95385 | -72.54205 | 26254 ft | 424 kts | 340° |
| 2026-04-18 03:48 | 18.98102 | -72.55394 | 27155 ft | 426 kts | 340° |
| 2026-04-18 03:49 | 19.00845 | -72.56595 | 28063 ft | 427 kts | 340° |
| 2026-04-18 03:49 | 19.03575 | -72.57791 | 28965 ft | 427 kts | 341° |
| 2026-04-18 03:49 | 19.06305 | -72.58987 | 29884 ft | 425 kts | 341° |
| 2026-04-18 03:49 | 19.09024 | -72.60227 | 30811 ft | 424 kts | 336° |
| 2026-04-18 03:50 | 19.11619 | -72.61719 | 31751 ft | 421 kts | 334° |
| 2026-04-18 03:50 | 19.14157 | -72.63234 | 32694 ft | 417 kts | 334° |
| 2026-04-18 03:50 | 19.16675 | -72.64741 | 33672 ft | 410 kts | 334° |
| 2026-04-18 03:50 | 19.19107 | -72.66196 | 34644 ft | 402 kts | 334° |
| 2026-04-18 03:51 | 19.21531 | -72.67645 | 35639 ft | 392 kts | 334° |
| 2026-04-18 03:51 | 19.23858 | -72.69037 | 36620 ft | 379 kts | 333° |
| 2026-04-18 03:51 | 19.26091 | -72.70373 | 37555 ft | 366 kts | 333° |
| 2026-04-18 03:51 | 19.28304 | -72.71695 | 37969 ft | 364 kts | 333° |
| 2026-04-18 03:52 | 19.32768 | -72.74361 | 38008 ft | 372 kts | 333° |
| 2026-04-18 03:52 | 19.37298 | -72.77070 | 38019 ft | 380 kts | 333° |
| 2026-04-18 03:53 | 19.41972 | -72.79868 | 38019 ft | 389 kts | 333° |
| 2026-04-18 03:53 | 19.46743 | -72.82726 | 38026 ft | 397 kts | 333° |
| 2026-04-18 03:54 | 19.51581 | -72.85626 | 38022 ft | 407 kts | 333° |
| 2026-04-18 03:54 | 19.56591 | -72.88631 | 38019 ft | 416 kts | 333° |
| 2026-04-18 03:55 | 19.61680 | -72.91687 | 38011 ft | 426 kts | 333° |
| 2026-04-18 03:55 | 19.66896 | -72.94821 | 38012 ft | 436 kts | 333° |
| 2026-04-18 03:56 | 19.72254 | -72.98043 | 38017 ft | 446 kts | 333° |
| 2026-04-18 03:56 | 19.77698 | -73.01318 | 38017 ft | 455 kts | 333° |
| 2026-04-18 03:57 | 19.86198 | -73.06100 | 38008 ft | 465 kts | 334° |
| 2026-04-18 03:58 | 19.91920 | -73.09303 | 37999 ft | 468 kts | 334° |
| 2026-04-18 03:58 | 19.97719 | -73.12522 | 37990 ft | 470 kts | 334° |
| 2026-04-18 03:59 | 20.03525 | -73.15750 | 37983 ft | 470 kts | 334° |
| 2026-04-18 03:59 | 20.09322 | -73.18978 | 37981 ft | 470 kts | 334° |
| 2026-04-18 04:00 | 20.14973 | -73.22441 | 37998 ft | 473 kts | 326° |
| 2026-04-18 04:00 | 20.20044 | -73.26975 | 37992 ft | 475 kts | 322° |
| 2026-04-18 04:01 | 20.24092 | -73.30698 | 37993 ft | 475 kts | 322° |
| 2026-04-18 04:04 | 20.29056 | -73.35268 | 37989 ft | 475 kts | 322° |
| 2026-04-18 04:04 | 20.34049 | -73.39867 | 37987 ft | 474 kts | 322° |
| 2026-04-18 04:05 | 20.39029 | -73.44457 | 37988 ft | 474 kts | 322° |
| 2026-04-18 04:05 | 20.44018 | -73.49060 | 37990 ft | 474 kts | 322° |
| 2026-04-18 04:06 | 20.49020 | -73.53677 | 37983 ft | 473 kts | 322° |
| 2026-04-18 04:06 | 20.53973 | -73.58254 | 37983 ft | 473 kts | 322° |
| 2026-04-18 04:07 | 20.58953 | -73.62861 | 37985 ft | 473 kts | 322° |
| 2026-04-18 04:07 | 20.63901 | -73.67442 | 37983 ft | 472 kts | 322° |
| 2026-04-18 04:08 | 20.68865 | -73.72041 | 37985 ft | 472 kts | 322° |
| 2026-04-18 04:08 | 20.73847 | -73.76661 | 37982 ft | 472 kts | 322° |
| 2026-04-18 04:09 | 20.78772 | -73.81233 | 37985 ft | 472 kts | 322° |
| 2026-04-18 04:09 | 20.83718 | -73.85828 | 37979 ft | 472 kts | 322° |
| 2026-04-18 04:10 | 20.88668 | -73.90430 | 37981 ft | 471 kts | 322° |
| 2026-04-18 04:10 | 20.93631 | -73.95049 | 37983 ft | 471 kts | 322° |
| 2026-04-18 04:11 | 20.98547 | -73.99630 | 37977 ft | 471 kts | 322° |
| 2026-04-18 04:11 | 21.03478 | -74.04227 | 37983 ft | 471 kts | 321° |
| 2026-04-18 04:12 | 21.08428 | -74.08847 | 37985 ft | 470 kts | 322° |
| 2026-04-18 04:12 | 21.13339 | -74.13435 | 37997 ft | 471 kts | 321° |
| 2026-04-18 04:13 | 21.18291 | -74.18064 | 37999 ft | 471 kts | 321° |
| 2026-04-18 04:13 | 21.23233 | -74.22690 | 37997 ft | 472 kts | 321° |
| 2026-04-18 04:14 | 21.28165 | -74.27310 | 38002 ft | 472 kts | 321° |
| 2026-04-18 04:14 | 21.33108 | -74.31944 | 38003 ft | 472 kts | 321° |
| 2026-04-18 04:15 | 21.38034 | -74.36567 | 38001 ft | 472 kts | 321° |
| 2026-04-18 04:15 | 21.42983 | -74.41215 | 38003 ft | 473 kts | 321° |
| 2026-04-18 04:16 | 21.47938 | -74.45875 | 38007 ft | 473 kts | 321° |
| 2026-04-18 04:16 | 21.52880 | -74.50526 | 38006 ft | 473 kts | 321° |
| 2026-04-18 04:17 | 21.57838 | -74.55196 | 38006 ft | 473 kts | 321° |
| 2026-04-18 04:17 | 21.62779 | -74.59856 | 38010 ft | 473 kts | 321° |
| 2026-04-18 04:18 | 21.67717 | -74.64516 | 38014 ft | 474 kts | 321° |
| 2026-04-18 04:18 | 21.72651 | -74.69177 | 38011 ft | 474 kts | 321° |
| 2026-04-18 04:19 | 21.77619 | -74.73874 | 38016 ft | 474 kts | 321° |
| 2026-04-18 04:19 | 21.82550 | -74.78541 | 38018 ft | 474 kts | 321° |
| 2026-04-18 04:20 | 21.87503 | -74.83234 | 38018 ft | 475 kts | 321° |
| 2026-04-18 04:20 | 21.92469 | -74.87943 | 38017 ft | 475 kts | 321° |
| 2026-04-18 04:21 | 21.97430 | -74.92652 | 38020 ft | 475 kts | 321° |
| 2026-04-18 04:21 | 22.02395 | -74.97370 | 38022 ft | 475 kts | 321° |
| 2026-04-18 04:22 | 22.07327 | -75.02061 | 38022 ft | 475 kts | 321° |
| 2026-04-18 04:22 | 22.12101 | -75.06992 | 38038 ft | 477 kts | 314° |
| 2026-04-18 04:23 | 22.16416 | -75.12450 | 38029 ft | 478 kts | 313° |
| 2026-04-18 04:23 | 22.20699 | -75.17902 | 38029 ft | 478 kts | 313° |
| 2026-04-18 04:24 | 22.24980 | -75.23357 | 38027 ft | 477 kts | 313° |
| 2026-04-18 04:24 | 22.29263 | -75.28821 | 38030 ft | 477 kts | 313° |
| 2026-04-18 04:25 | 22.33551 | -75.34296 | 38027 ft | 477 kts | 313° |
| 2026-04-18 04:25 | 22.37812 | -75.39742 | 38030 ft | 476 kts | 313° |
| 2026-04-18 04:26 | 22.42104 | -75.45234 | 38026 ft | 476 kts | 313° |
| 2026-04-18 04:26 | 22.46355 | -75.50679 | 38025 ft | 476 kts | 313° |
| 2026-04-18 04:27 | 22.50616 | -75.56142 | 38026 ft | 475 kts | 313° |
| 2026-04-18 04:27 | 22.54877 | -75.61610 | 38024 ft | 475 kts | 313° |
| 2026-04-18 04:28 | 22.59110 | -75.67050 | 38030 ft | 475 kts | 312° |
| 2026-04-18 04:28 | 22.63356 | -75.72510 | 38027 ft | 474 kts | 312° |
| 2026-04-18 04:29 | 22.67601 | -75.77977 | 38027 ft | 474 kts | 312° |
| 2026-04-18 04:29 | 22.71860 | -75.83466 | 38029 ft | 474 kts | 312° |
| 2026-04-18 04:30 | 22.76075 | -75.88904 | 38027 ft | 474 kts | 312° |
| 2026-04-18 04:30 | 22.80304 | -75.94366 | 38024 ft | 474 kts | 312° |
| 2026-04-18 04:31 | 22.84540 | -75.99844 | 38024 ft | 474 kts | 312° |
| 2026-04-18 04:31 | 22.88785 | -76.05339 | 38022 ft | 473 kts | 312° |
| 2026-04-18 04:32 | 22.93015 | -76.10820 | 38021 ft | 473 kts | 312° |
| 2026-04-18 04:32 | 22.97224 | -76.16280 | 38021 ft | 473 kts | 312° |
| 2026-04-18 04:33 | 23.01458 | -76.21777 | 38019 ft | 473 kts | 312° |
| 2026-04-18 04:33 | 23.05668 | -76.27250 | 38020 ft | 472 kts | 312° |
| 2026-04-18 04:34 | 23.09870 | -76.32719 | 38020 ft | 472 kts | 311° |
| 2026-04-18 04:34 | 23.14075 | -76.38197 | 38033 ft | 472 kts | 311° |
| 2026-04-18 04:35 | 23.18283 | -76.43684 | 38029 ft | 472 kts | 312° |
| 2026-04-18 04:35 | 23.22458 | -76.49135 | 38029 ft | 471 kts | 311° |
| 2026-04-18 04:36 | 23.26675 | -76.54647 | 38032 ft | 471 kts | 311° |
| 2026-04-18 04:36 | 23.30861 | -76.60123 | 38029 ft | 471 kts | 311° |
| 2026-04-18 04:37 | 23.35058 | -76.65621 | 38032 ft | 470 kts | 311° |
| 2026-04-18 04:37 | 23.39205 | -76.71059 | 38035 ft | 470 kts | 311° |
| 2026-04-18 04:38 | 23.43371 | -76.76527 | 38037 ft | 470 kts | 311° |
| 2026-04-18 04:38 | 23.47541 | -76.82008 | 38033 ft | 470 kts | 311° |
| 2026-04-18 04:39 | 23.51702 | -76.87480 | 38037 ft | 469 kts | 311° |
| 2026-04-18 04:39 | 23.55880 | -76.92973 | 38033 ft | 469 kts | 311° |
| 2026-04-18 04:40 | 23.60026 | -76.98426 | 38037 ft | 469 kts | 311° |
| 2026-04-18 04:40 | 23.64187 | -77.03906 | 38037 ft | 469 kts | 311° |
| 2026-04-18 04:41 | 23.68325 | -77.09361 | 38041 ft | 468 kts | 311° |
| 2026-04-18 04:41 | 23.72451 | -77.14808 | 38037 ft | 468 kts | 311° |
| 2026-04-18 04:42 | 23.76598 | -77.20288 | 38043 ft | 468 kts | 311° |
| 2026-04-18 04:42 | 23.80735 | -77.25761 | 38040 ft | 467 kts | 311° |
| 2026-04-18 04:43 | 23.84874 | -77.31242 | 38037 ft | 467 kts | 311° |
| 2026-04-18 04:43 | 23.88987 | -77.36696 | 38039 ft | 467 kts | 311° |
| 2026-04-18 04:44 | 23.93102 | -77.42157 | 38041 ft | 467 kts | 311° |
| 2026-04-18 04:44 | 23.97232 | -77.47646 | 38037 ft | 466 kts | 311° |
| 2026-04-18 04:45 | 24.01338 | -77.53106 | 38040 ft | 466 kts | 311° |
| 2026-04-18 04:45 | 24.05444 | -77.58575 | 38038 ft | 466 kts | 311° |
| 2026-04-18 04:46 | 24.09568 | -77.64072 | 38041 ft | 466 kts | 311° |
| 2026-04-18 04:46 | 24.13599 | -77.69453 | 38061 ft | 466 kts | 311° |
| 2026-04-18 04:47 | 24.17703 | -77.74936 | 38061 ft | 465 kts | 311° |
| 2026-04-18 04:47 | 24.21813 | -77.80435 | 38061 ft | 465 kts | 311° |
| 2026-04-18 04:48 | 24.25880 | -77.85881 | 38058 ft | 465 kts | 310° |
| 2026-04-18 04:48 | 24.29640 | -77.91660 | 38049 ft | 465 kts | 306° |
| 2026-04-18 04:48 | 24.31427 | -77.94569 | 37880 ft | 461 kts | 306° |
| 2026-04-18 04:49 | 24.33226 | -77.97498 | 37177 ft | 460 kts | 306° |
| 2026-04-18 04:49 | 24.34999 | -78.00383 | 35932 ft | 467 kts | 305° |
| 2026-04-18 04:49 | 24.36813 | -78.03336 | 34362 ft | 477 kts | 305° |
| 2026-04-18 04:49 | 24.38675 | -78.06370 | 32684 ft | 486 kts | 304° |
| 2026-04-18 04:50 | 24.40542 | -78.09414 | 31404 ft | 487 kts | 305° |
| 2026-04-18 04:50 | 24.42444 | -78.12517 | 30296 ft | 485 kts | 305° |
| 2026-04-18 04:50 | 24.44290 | -78.15531 | 29503 ft | 480 kts | 305° |
| 2026-04-18 04:50 | 24.46130 | -78.18536 | 28857 ft | 474 kts | 305° |
| 2026-04-18 04:51 | 24.47961 | -78.21529 | 28312 ft | 467 kts | 305° |
| 2026-04-18 04:51 | 24.49745 | -78.24447 | 28074 ft | 465 kts | 305° |
| 2026-04-18 04:51 | 24.51576 | -78.27441 | 28060 ft | 469 kts | 305° |
| 2026-04-18 04:52 | 24.55208 | -78.33388 | 28061 ft | 470 kts | 305° |
| 2026-04-18 04:52 | 24.58848 | -78.39355 | 28063 ft | 469 kts | 305° |
| 2026-04-18 04:53 | 24.62478 | -78.45312 | 28061 ft | 470 kts | 305° |
| 2026-04-18 04:53 | 24.66082 | -78.51234 | 28062 ft | 470 kts | 305° |
| 2026-04-18 04:54 | 24.69704 | -78.57194 | 28062 ft | 470 kts | 305° |
| 2026-04-18 04:54 | 24.73327 | -78.63163 | 28061 ft | 469 kts | 304° |
| 2026-04-18 04:55 | 24.76948 | -78.69134 | 28067 ft | 468 kts | 304° |
| 2026-04-18 04:55 | 24.80564 | -78.75106 | 28069 ft | 469 kts | 304° |
| 2026-04-18 04:56 | 24.84124 | -78.80995 | 27995 ft | 445 kts | 304° |
| 2026-04-18 04:56 | 24.85815 | -78.83793 | 27740 ft | 437 kts | 304° |
| 2026-04-18 04:56 | 24.87498 | -78.86580 | 27369 ft | 438 kts | 304° |
| 2026-04-18 04:56 | 24.89187 | -78.89378 | 26990 ft | 437 kts | 304° |
| 2026-04-18 04:57 | 24.90865 | -78.92159 | 26593 ft | 435 kts | 304° |
| 2026-04-18 04:57 | 24.92532 | -78.94924 | 26120 ft | 434 kts | 304° |
| 2026-04-18 04:57 | 24.94185 | -78.97669 | 25646 ft | 431 kts | 304° |
| 2026-04-18 04:57 | 24.95831 | -79.00401 | 25170 ft | 429 kts | 304° |
| 2026-04-18 04:58 | 24.96919 | -79.02209 | 24842 ft | 428 kts | 304° |
| 2026-04-18 04:58 | 24.98543 | -79.04909 | 24205 ft | 428 kts | 304° |
| 2026-04-18 04:58 | 25.00193 | -79.07653 | 23530 ft | 425 kts | 304° |
| 2026-04-18 04:58 | 25.01804 | -79.10333 | 22876 ft | 423 kts | 304° |
| 2026-04-18 04:59 | 25.03420 | -79.13024 | 22224 ft | 420 kts | 304° |
| 2026-04-18 04:59 | 25.05032 | -79.15710 | 21573 ft | 418 kts | 304° |
| 2026-04-18 04:59 | 25.06611 | -79.18343 | 20935 ft | 416 kts | 304° |
| 2026-04-18 04:59 | 25.08209 | -79.21008 | 20288 ft | 413 kts | 304° |
| 2026-04-18 05:00 | 25.09785 | -79.23640 | 19647 ft | 411 kts | 304° |
| 2026-04-18 05:00 | 25.11348 | -79.26249 | 19010 ft | 409 kts | 304° |
| 2026-04-18 05:00 | 25.12625 | -79.28383 | 18488 ft | 407 kts | 304° |
| 2026-04-18 05:01 | 25.13959 | -79.30613 | 17940 ft | 406 kts | 304° |
| 2026-04-18 05:01 | 25.15502 | -79.33193 | 17306 ft | 404 kts | 304° |
| 2026-04-18 05:01 | 25.17044 | -79.35773 | 16669 ft | 402 kts | 304° |
| 2026-04-18 05:01 | 25.18571 | -79.38329 | 16033 ft | 400 kts | 304° |
| 2026-04-18 05:02 | 25.20087 | -79.40868 | 15420 ft | 397 kts | 304° |
| 2026-04-18 05:02 | 25.21574 | -79.43361 | 15143 ft | 385 kts | 305° |
| 2026-04-18 05:02 | 25.23028 | -79.45802 | 15110 ft | 367 kts | 305° |
| 2026-04-18 05:02 | 25.24412 | -79.48122 | 15111 ft | 363 kts | 305° |
| 2026-04-18 05:03 | 25.25799 | -79.50450 | 15058 ft | 358 kts | 305° |
| 2026-04-18 05:03 | 25.27141 | -79.52704 | 14790 ft | 351 kts | 305° |
| 2026-04-18 05:03 | 25.28475 | -79.54945 | 14385 ft | 349 kts | 305° |
| 2026-04-18 05:03 | 25.29799 | -79.57169 | 14140 ft | 346 kts | 305° |
| 2026-04-18 05:04 | 25.31137 | -79.59418 | 14116 ft | 350 kts | 305° |
| 2026-04-18 05:04 | 25.32463 | -79.61648 | 14114 ft | 350 kts | 305° |
| 2026-04-18 05:04 | 25.33803 | -79.63903 | 14113 ft | 349 kts | 305° |
| 2026-04-18 05:04 | 25.35142 | -79.66157 | 14118 ft | 350 kts | 305° |
| 2026-04-18 05:05 | 25.36478 | -79.68410 | 14116 ft | 350 kts | 305° |
| 2026-04-18 05:05 | 25.37796 | -79.70631 | 14100 ft | 345 kts | 305° |
| 2026-04-18 05:05 | 25.39086 | -79.72808 | 13974 ft | 333 kts | 306° |
| 2026-04-18 05:05 | 25.40415 | -79.74909 | 13581 ft | 331 kts | 308° |
| 2026-04-18 05:06 | 25.41751 | -79.76956 | 13132 ft | 331 kts | 308° |
| 2026-04-18 05:06 | 25.43088 | -79.79018 | 12715 ft | 330 kts | 307° |
| 2026-04-18 05:06 | 25.44422 | -79.81087 | 12315 ft | 328 kts | 307° |
| 2026-04-18 05:06 | 25.45734 | -79.83129 | 11918 ft | 327 kts | 307° |
| 2026-04-18 05:07 | 25.47038 | -79.85162 | 11521 ft | 326 kts | 307° |
| 2026-04-18 05:07 | 25.48355 | -79.87218 | 11182 ft | 322 kts | 307° |
| 2026-04-18 05:07 | 25.49654 | -79.89244 | 11129 ft | 324 kts | 307° |
| 2026-04-18 05:07 | 25.50949 | -79.91267 | 11103 ft | 318 kts | 307° |
| 2026-04-18 05:08 | 25.52204 | -79.93230 | 11057 ft | 306 kts | 307° |
| 2026-04-18 05:08 | 25.53426 | -79.95138 | 10763 ft | 305 kts | 307° |
| 2026-04-18 05:08 | 25.54648 | -79.97047 | 10392 ft | 305 kts | 307° |
| 2026-04-18 05:08 | 25.55870 | -79.98958 | 10015 ft | 306 kts | 307° |
| 2026-04-18 05:09 | 25.57096 | -80.00877 | 9635 ft | 306 kts | 307° |
| 2026-04-18 05:09 | 25.58327 | -80.02804 | 9255 ft | 306 kts | 307° |
| 2026-04-18 05:09 | 25.58947 | -80.03773 | 9065 ft | 306 kts | 307° |
| 2026-04-18 05:09 | 25.60168 | -80.05686 | 8685 ft | 306 kts | 307° |
| 2026-04-18 05:10 | 25.61393 | -80.07606 | 8307 ft | 306 kts | 307° |
| 2026-04-18 05:10 | 25.62626 | -80.09538 | 7921 ft | 306 kts | 307° |
| 2026-04-18 05:10 | 25.63848 | -80.11455 | 7535 ft | 306 kts | 307° |
| 2026-04-18 05:10 | 25.65081 | -80.13403 | 7186 ft | 304 kts | 304° |
| 2026-04-18 05:11 | 25.66065 | -80.15426 | 7209 ft | 289 kts | 297° |
| 2026-04-18 05:11 | 25.66910 | -80.17402 | 7242 ft | 287 kts | 296° |
| 2026-04-18 05:11 | 25.67767 | -80.19430 | 7247 ft | 287 kts | 296° |
| 2026-04-18 05:11 | 25.68611 | -80.21422 | 7250 ft | 286 kts | 296° |
| 2026-04-18 05:12 | 25.69461 | -80.23425 | 7246 ft | 287 kts | 296° |
| 2026-04-18 05:12 | 25.70316 | -80.25439 | 7051 ft | 289 kts | 296° |
| 2026-04-18 05:12 | 25.70841 | -80.26749 | 6890 ft | 287 kts | 290° |
| 2026-04-18 05:12 | 25.71139 | -80.28912 | 6651 ft | 286 kts | 272° |
| 2026-04-18 05:13 | 25.71096 | -80.31116 | 6412 ft | 286 kts | 268° |
| 2026-04-18 05:13 | 25.70994 | -80.33312 | 6128 ft | 284 kts | 267° |
| 2026-04-18 05:13 | 25.70888 | -80.35488 | 5795 ft | 285 kts | 268° |
| 2026-04-18 05:13 | 25.70859 | -80.36077 | 5703 ft | 285 kts | 268° |
| 2026-04-18 05:14 | 25.70766 | -80.38017 | 5404 ft | 285 kts | 268° |
| 2026-04-18 05:14 | 25.70661 | -80.40202 | 5071 ft | 286 kts | 268° |
| 2026-04-18 05:14 | 25.70556 | -80.42394 | 4732 ft | 286 kts | 268° |
| 2026-04-18 05:14 | 25.70444 | -80.44591 | 4394 ft | 286 kts | 266° |
| 2026-04-18 05:15 | 25.70259 | -80.46797 | 4054 ft | 287 kts | 265° |
| 2026-04-18 05:15 | 25.70033 | -80.48987 | 3717 ft | 287 kts | 264° |
| 2026-04-18 05:15 | 25.69992 | -80.51179 | 3409 ft | 283 kts | 282° |
| 2026-04-18 05:15 | 25.70746 | -80.53114 | 3253 ft | 271 kts | 310° |
| 2026-04-18 05:16 | 25.72169 | -80.54377 | 3176 ft | 254 kts | 339° |
| 2026-04-18 05:16 | 25.73847 | -80.54687 | 3105 ft | 244 kts | 9° |
| 2026-04-18 05:16 | 25.75407 | -80.54029 | 3025 ft | 240 kts | 39° |
| 2026-04-18 05:16 | 25.76418 | -80.52583 | 3004 ft | 238 kts | 69° |
| 2026-04-18 05:17 | 25.76749 | -80.50804 | 3015 ft | 239 kts | 80° |
| 2026-04-18 05:17 | 25.77335 | -80.49088 | 2974 ft | 238 kts | 62° |
| 2026-04-18 05:17 | 25.77920 | -80.47384 | 2757 ft | 236 kts | 79° |
| 2026-04-18 05:17 | 25.78094 | -80.45601 | 2483 ft | 223 kts | 86° |
| 2026-04-18 05:18 | 25.78134 | -80.43981 | 2216 ft | 200 kts | 88° |
| 2026-04-18 05:18 | 25.78164 | -80.42521 | 1986 ft | 181 kts | 86° |
| 2026-04-18 05:18 | 25.78214 | -80.41188 | 1776 ft | 165 kts | 86° |
| 2026-04-18 05:18 | 25.78262 | -80.39972 | 1583 ft | 157 kts | 86° |
| 2026-04-18 05:19 | 25.78311 | -80.38787 | 1381 ft | 149 kts | 86° |
| 2026-04-18 05:19 | 25.78338 | -80.38114 | 1269 ft | 148 kts | 86° |
| 2026-04-18 05:19 | 25.78386 | -80.36971 | 1073 ft | 147 kts | 86° |
| 2026-04-18 05:19 | 25.78433 | -80.35833 | 875 ft | 147 kts | 86° |
| 2026-04-18 05:20 | 25.78480 | -80.34693 | 679 ft | 149 kts | 86° |
| 2026-04-18 05:20 | 25.78527 | -80.33558 | 482 ft | 149 kts | 86° |
| 2026-04-18 05:20 | 25.78575 | -80.32400 | 283 ft | 150 kts | 86° |
| 2026-04-18 05:20 | 25.78623 | -80.31239 | 87 ft | 151 kts | 86° |
| 2026-04-18 05:21 | 25.78679 | -80.30116 | 20 ft | 145 kts | 86° |
| 2026-04-18 05:21 | 25.78690 | -80.29096 | 22 ft | 114 kts | 80° |
| 2026-04-18 05:21 | 25.78733 | -80.28344 | 21 ft | 82 kts | 86° |
| 2026-04-18 05:21 | 25.78765 | -80.27857 | 20 ft | 22 kts | 86° |
| 2026-04-18 05:22 | 25.78774 | -80.27726 | 20 ft | 13 kts | 85° |
| 2026-04-18 05:22 | 25.78803 | -80.27670 | 20 ft | 10 kts | 337° |
| 2026-04-18 05:22 | 25.78873 | -80.27766 | 20 ft | 18 kts | 279° |
| 2026-04-18 05:22 | 25.78916 | -80.27885 | 20 ft | 15 kts | 302° |
| 2026-04-18 05:23 | 25.78979 | -80.28020 | 20 ft | 21 kts | 298° |
| 2026-04-18 05:23 | 25.79013 | -80.28082 | 21 ft | 7 kts | 311° |
| 2026-04-18 05:23 | 25.79080 | -80.28074 | 20 ft | 14 kts | 25° |
| 2026-04-18 05:23 | 25.79158 | -80.28021 | 20 ft | 11 kts | 31° |
| 2026-04-18 05:24 | 25.79200 | -80.28013 | 20 ft | 4 kts | 320° |
| 2026-04-18 05:24 | 25.79216 | -80.28033 | 20 ft | 1 kts | 308° |
| 2026-04-18 05:24 | 25.79228 | -80.28051 | 20 ft | 0 kts | 308° |
| 2026-04-18 05:24 | 25.79231 | -80.28055 | 20 ft | 0 kts | 308° |
| 2026-04-18 05:25 | 25.79233 | -80.28058 | 20 ft | 0 kts | 307° |
| 2026-04-18 05:25 | 25.79233 | -80.28059 | 20 ft | 0 kts | 308° |